Strona główna
METAR-TAF:

METAR-TAF

Lotnisko :

Port lotniczy Saint John

Saint John, Nowy Brunszwik, Kanada

Szerokość geograficzna: 45-20N, Długość geograficzna: 065-53W, wysokość: 103 m

Aktualna obserwacja pogody

Raport powstał 1 godzina i 8 minut temu, godzina 21:00 UTC
Wiatr 13 kt od północny zachód w porywach dochodzący do 20 kt
Temperatura -7°C
Wilgotność 48%
Ciśnienie 1015 hPa
Widzialność: 24.1 km
Mało chmury na wysokości 4000 ft

METAR: CYSJ 102100Z 32013G20KT 15SM FEW040 M07/M16 A2998 RMK SC1 SLP162

czas: 18:08 (22:08 UTC)

Prognoza

Raport powstał 4 godziny i 29 minut temu, godzina 17:39 UTC
Prognoza ważna od 10 godzina 18 UTC do 11 godzina 06 UTC
Wiatr 10 kt od północno-północny zachód w porywach dochodzący do 20 kt
Widzialność: 10 km
Mało chmury na wysokości 3000 ft
Stopniowe zmiany
od 11 godzina 02 UTC do 11 godzina 04 UTC
Wiatr 5 kt od północno-północny zachód

TAF: CYSJ 101739Z 1018/1106 33010G20KT P6SM FEW030 BECMG 1102/1104 33005KT RMK NXT FCST BY 110000Z

Obserwacja i prognoza pogody dla ponad 4000 lotnisk (raport METAR i TAF).

Dostępne stacje oznaczono żółtymi i czerwonymi punktami na mapie.

Najedź kursorem aby zobaczyć nazwę stacji.

Kliknij aby zobaczyć obserwacje i prognozy pogody.

Aby zmienić mapę: kliknij na zielony przycisk z czarnym krzyżykiem, aby powiększyć; na zielony przycisk z myślnikiem, aby pomniejszyć; na zielone strzałki, aby przejść do map sąsiednich.


METAR-TAF: